Time,TemperatureF,DewpointF,PressureIn,WindDirection,WindDirectionDegrees,WindSpeedMPH,WindSpeedGustMPH,Humidity,HourlyPrecipIn,Conditions,Clouds,dailyrainin,SoftwareType,DateUTC
2013-06-28 00:03:00,69.9,67.0,29.74,NW,323,0.0,0.0,89,0.00,,,0.00,weatherlink.com 1.10,2013-06-28 05:03:00,
2013-06-28 00:18:00,69.5,66.0,29.73,NW,323,0.0,0.0,89,0.00,,,0.00,weatherlink.com 1.10,2013-06-28 05:18:00,
2013-06-28 00:34:00,69.3,66.0,29.73,NW,323,0.0,0.0,90,0.00,,,0.00,weatherlink.com 1.10,2013-06-28 05:34:00,
2013-06-28 00:49:00,69.1,66.0,29.73,NW,323,0.0,0.0,90,0.00,,,0.00,weatherlink.com 1.10,2013-06-28 05:49:00,
2013-06-28 01:04:00,69.0,66.0,29.73,NW,323,0.0,0.0,91,0.00,,,0.00,weatherlink.com 1.10,2013-06-28 06:04:00,
2013-06-28 01:19:00,68.8,66.0,29.72,NW,323,0.0,0.0,91,0.00,,,0.00,weatherlink.com 1.10,2013-06-28 06:19:00,
2013-06-28 01:34:00,68.5,66.0,29.72,NW,323,0.0,0.0,92,0.00,,,0.00,weatherlink.com 1.10,2013-06-28 06:34:00,
2013-06-28 01:49:00,68.3,66.0,29.72,NW,323,0.0,0.0,93,0.00,,,0.00,weatherlink.com 1.10,2013-06-28 06:49:00,
2013-06-28 02:04:00,68.0,66.0,29.72,NW,323,0.0,0.0,92,0.00,,,0.00,weatherlink.com 1.10,2013-06-28 07:04:00,
2013-06-28 02:19:00,67.9,66.0,29.72,NW,323,0.0,0.0,92,0.00,,,0.00,weatherlink.com 1.10,2013-06-28 07:19:00,
2013-06-28 02:34:00,67.5,65.0,29.72,NW,323,0.0,0.0,92,0.00,,,0.00,weatherlink.com 1.10,2013-06-28 07:34:00,
2013-06-28 02:49:00,67.3,65.0,29.72,NW,323,0.0,0.0,93,0.00,,,0.00,weatherlink.com 1.10,2013-06-28 07:49:00,
2013-06-28 03:04:00,67.1,65.0,29.71,NW,323,0.0,0.0,92,0.00,,,0.00,weatherlink.com 1.10,2013-06-28 08:04:00,
2013-06-28 03:19:00,67.0,65.0,29.71,NW,323,0.0,0.0,92,0.00,,,0.00,weatherlink.com 1.10,2013-06-28 08:19:00,
2013-06-28 03:34:00,67.3,65.0,29.71,NW,323,0.0,0.0,92,0.00,,,0.00,weatherlink.com 1.10,2013-06-28 08:34:00,
2013-06-28 03:49:00,68.0,65.0,29.71,NW,323,0.0,0.0,89,0.00,,,0.00,weatherlink.com 1.10,2013-06-28 08:49:00,
2013-06-28 04:04:00,69.1,64.0,29.71,NW,323,0.0,0.0,83,0.00,,,0.00,weatherlink.com 1.10,2013-06-28 09:04:00,
2013-06-28 04:19:00,70.1,64.0,29.70,NW,323,0.0,1.0,81,0.00,,,0.00,weatherlink.com 1.10,2013-06-28 09:19:00,
2013-06-28 04:34:00,70.2,65.0,29.72,NW,324,0.0,1.0,82,0.00,,,0.00,weatherlink.com 1.10,2013-06-28 09:34:00,
2013-06-28 04:49:00,70.7,66.0,29.71,NW,323,0.0,1.0,85,0.00,,,0.00,weatherlink.com 1.10,2013-06-28 09:49:00,
2013-06-28 05:04:00,71.0,67.0,29.71,NW,323,0.0,1.0,87,0.00,,,0.00,weatherlink.com 1.10,2013-06-28 10:04:00,
2013-06-28 05:19:00,71.2,67.0,29.71,NW,323,0.0,1.0,86,0.00,,,0.00,weatherlink.com 1.10,2013-06-28 10:19:00,
2013-06-28 05:34:00,70.9,66.0,29.72,NW,323,0.0,1.0,85,0.00,,,0.00,weatherlink.com 1.10,2013-06-28 10:34:00,
2013-06-28 05:49:00,70.3,66.0,29.72,NW,323,0.0,0.0,85,0.00,,,0.00,weatherlink.com 1.10,2013-06-28 10:49:00,
2013-06-28 06:04:00,69.8,65.0,29.73,NW,323,0.0,0.0,84,0.00,,,0.00,weatherlink.com 1.10,2013-06-28 11:04:00,
2013-06-28 06:19:00,69.1,65.0,29.73,NW,323,0.0,0.0,85,0.00,,,0.00,weatherlink.com 1.10,2013-06-28 11:19:00,
2013-06-28 06:34:00,68.8,65.0,29.74,NW,323,0.0,0.0,86,0.00,,,0.00,weatherlink.com 1.10,2013-06-28 11:34:00,
2013-06-28 06:49:00,68.8,64.0,29.74,NW,323,0.0,0.0,85,0.00,,,0.00,weatherlink.com 1.10,2013-06-28 11:49:00,
2013-06-28 07:04:00,69.4,64.0,29.74,NW,323,0.0,0.0,83,0.00,,,0.00,weatherlink.com 1.10,2013-06-28 12:04:00,
2013-06-28 07:19:00,69.7,64.0,29.75,NW,323,0.0,1.0,82,0.00,,,0.00,weatherlink.com 1.10,2013-06-28 12:19:00,
2013-06-28 07:34:00,70.2,64.0,29.75,NNW,328,0.0,2.0,81,0.00,,,0.00,weatherlink.com 1.10,2013-06-28 12:34:00,
2013-06-28 07:49:00,70.7,64.0,29.75,NW,326,0.0,2.0,80,0.00,,,0.00,weatherlink.com 1.10,2013-06-28 12:49:00,
2013-06-28 08:04:00,71.2,64.0,29.75,NW,326,0.0,1.0,78,0.00,,,0.00,weatherlink.com 1.10,2013-06-28 13:04:00,
2013-06-28 08:19:00,71.9,64.0,29.75,NNW,331,0.0,2.0,76,0.00,,,0.00,weatherlink.com 1.10,2013-06-28 13:19:00,
2013-06-28 08:34:00,72.6,64.0,29.76,NNW,331,0.0,1.0,75,0.00,,,0.00,weatherlink.com 1.10,2013-06-28 13:34:00,
2013-06-28 08:49:00,73.5,64.0,29.76,NNW,328,0.0,3.0,73,0.00,,,0.00,weatherlink.com 1.10,2013-06-28 13:49:00,
2013-06-28 09:04:00,74.4,64.0,29.76,NNW,332,0.0,3.0,69,0.00,,,0.00,weatherlink.com 1.10,2013-06-28 14:04:00,
2013-06-28 09:19:00,75.1,65.0,29.76,NNW,338,0.0,1.0,70,0.00,,,0.00,weatherlink.com 1.10,2013-06-28 14:19:00,
2013-06-28 09:34:00,75.7,64.0,29.76,North,5,0.0,5.0,67,0.00,,,0.00,weatherlink.com 1.10,2013-06-28 14:34:00,
2013-06-28 09:50:00,76.4,64.0,29.76,NNW,336,0.0,3.0,65,0.00,,,0.00,weatherlink.com 1.10,2013-06-28 14:50:00,
2013-06-28 10:05:00,77.2,65.0,29.76,NNW,335,0.0,2.0,66,0.00,,,0.00,weatherlink.com 1.10,2013-06-28 15:05:00,
2013-06-28 10:20:00,77.8,64.0,29.76,NNW,329,0.0,5.0,62,0.00,,,0.00,weatherlink.com 1.10,2013-06-28 15:20:00,
2013-06-28 10:35:00,78.3,64.0,29.75,West,281,6.0,7.0,61,0.00,,,0.00,weatherlink.com 1.10,2013-06-28 15:35:00,
2013-06-28 10:50:00,79.0,63.0,29.75,NNW,330,2.0,9.0,58,0.00,,,0.00,weatherlink.com 1.10,2013-06-28 15:50:00,
2013-06-28 11:05:00,79.5,63.0,29.75,NW,318,3.0,5.0,57,0.00,,,0.00,weatherlink.com 1.10,2013-06-28 16:05:00,
2013-06-28 11:20:00,80.0,63.0,29.75,North,5,8.0,8.0,57,0.00,,,0.00,weatherlink.com 1.10,2013-06-28 16:20:00,
2013-06-28 11:35:00,80.3,63.0,29.75,NW,319,0.0,4.0,55,0.00,,,0.00,weatherlink.com 1.10,2013-06-28 16:35:00,
2013-06-28 11:50:00,81.0,61.0,29.75,WNW,294,0.0,5.0,51,0.00,,,0.00,weatherlink.com 1.10,2013-06-28 16:50:00,
2013-06-28 12:05:00,81.0,61.0,29.75,NNW,332,1.0,7.0,50,0.00,,,0.00,weatherlink.com 1.10,2013-06-28 17:05:00,
2013-06-28 12:20:00,81.0,61.0,29.75,NNW,337,0.0,9.0,50,0.00,,,0.00,weatherlink.com 1.10,2013-06-28 17:20:00,
2013-06-28 12:35:00,81.7,62.0,29.75,North,355,1.0,7.0,52,0.00,,,0.00,weatherlink.com 1.10,2013-06-28 17:35:00,
2013-06-28 12:50:00,81.9,60.0,29.75,NNE,28,0.0,11.0,47,0.00,,,0.00,weatherlink.com 1.10,2013-06-28 17:50:00,
2013-06-28 13:05:00,82.1,59.0,29.74,North,360,1.0,9.0,46,0.00,,,0.00,weatherlink.com 1.10,2013-06-28 18:05:00,
2013-06-28 13:20:00,82.4,61.0,29.73,NW,307,1.0,8.0,49,0.00,,,0.00,weatherlink.com 1.10,2013-06-28 18:20:00,
2013-06-28 13:35:00,82.6,61.0,29.73,North,351,0.0,8.0,48,0.00,,,0.00,weatherlink.com 1.10,2013-06-28 18:35:00,
2013-06-28 13:50:00,83.1,60.0,29.73,ENE,57,3.0,6.0,46,0.00,,,0.00,weatherlink.com 1.10,2013-06-28 18:50:00,
2013-06-28 14:05:00,83.1,60.0,29.73,NNW,346,0.0,6.0,45,0.00,,,0.00,weatherlink.com 1.10,2013-06-28 19:05:00,
2013-06-28 14:20:00,83.3,58.0,29.72,WNW,298,1.0,5.0,43,0.00,,,0.00,weatherlink.com 1.10,2013-06-28 19:20:00,
2013-06-28 14:35:00,83.8,59.0,29.71,WNW,301,1.0,6.0,43,0.00,,,0.00,weatherlink.com 1.10,2013-06-28 19:35:00,
2013-06-28 14:50:00,83.9,58.0,29.71,NW,320,2.0,9.0,41,0.00,,,0.00,weatherlink.com 1.10,2013-06-28 19:50:00,
2013-06-28 15:05:00,84.6,58.0,29.71,North,5,3.0,11.0,41,0.00,,,0.00,weatherlink.com 1.10,2013-06-28 20:05:00,
2013-06-28 15:20:00,84.7,58.0,29.71,NNW,341,1.0,8.0,40,0.00,,,0.00,weatherlink.com 1.10,2013-06-28 20:20:00,
2013-06-28 15:35:00,84.7,57.0,29.71,North,355,0.0,7.0,39,0.00,,,0.00,weatherlink.com 1.10,2013-06-28 20:35:00,
2013-06-28 15:50:00,84.8,58.0,29.71,North,11,0.0,11.0,40,0.00,,,0.00,weatherlink.com 1.10,2013-06-28 20:50:00,
2013-06-28 16:05:00,84.7,58.0,29.70,NNE,23,0.0,9.0,41,0.00,,,0.00,weatherlink.com 1.10,2013-06-28 21:05:00,
2013-06-28 16:20:00,84.7,59.0,29.70,West,274,0.0,9.0,42,0.00,,,0.00,weatherlink.com 1.10,2013-06-28 21:20:00,
2013-06-28 16:35:00,85.0,60.0,29.70,NNE,15,0.0,8.0,43,0.00,,,0.00,weatherlink.com 1.10,2013-06-28 21:35:00,
2013-06-28 16:50:00,84.9,60.0,29.69,North,360,0.0,6.0,43,0.00,,,0.00,weatherlink.com 1.10,2013-06-28 21:50:00,
2013-06-28 17:05:00,84.0,60.0,29.69,NE,44,3.0,6.0,45,0.00,,,0.00,weatherlink.com 1.10,2013-06-28 22:05:00,
2013-06-28 17:20:00,85.2,61.0,29.69,NNW,329,3.0,6.0,44,0.00,,,0.00,weatherlink.com 1.10,2013-06-28 22:20:00,
2013-06-28 17:35:00,85.4,60.0,29.68,North,355,0.0,8.0,43,0.00,,,0.00,weatherlink.com 1.10,2013-06-28 22:35:00,
2013-06-28 17:50:00,84.8,61.0,29.68,NNW,328,1.0,8.0,44,0.00,,,0.00,weatherlink.com 1.10,2013-06-28 22:50:00,
2013-06-28 18:05:00,84.7,61.0,29.68,NE,42,0.0,9.0,45,0.00,,,0.00,weatherlink.com 1.10,2013-06-28 23:05:00,
2013-06-28 18:20:00,84.3,61.0,29.67,NNE,20,2.0,8.0,45,0.00,,,0.00,weatherlink.com 1.10,2013-06-28 23:20:00,
2013-06-28 18:35:00,84.5,61.0,29.67,NE,42,0.0,6.0,45,0.00,,,0.00,weatherlink.com 1.10,2013-06-28 23:35:00,
2013-06-28 18:50:00,84.2,61.0,29.66,NNE,20,0.0,10.0,45,0.00,,,0.00,weatherlink.com 1.10,2013-06-28 23:50:00,
2013-06-28 19:05:00,83.7,58.0,29.66,NE,40,1.0,10.0,42,0.00,,,0.00,weatherlink.com 1.10,2013-06-29 00:05:00,
2013-06-28 19:20:00,83.4,60.0,29.66,NE,49,0.0,5.0,45,0.00,,,0.00,weatherlink.com 1.10,2013-06-29 00:20:00,
2013-06-28 19:35:00,82.6,60.0,29.66,NNW,343,0.0,6.0,46,0.00,,,0.00,weatherlink.com 1.10,2013-06-29 00:35:00,
2013-06-28 19:50:00,81.8,59.0,29.67,NW,317,0.0,4.0,46,0.00,,,0.00,weatherlink.com 1.10,2013-06-29 00:50:00,
2013-06-28 20:05:00,81.2,59.0,29.67,NW,322,0.0,1.0,47,0.00,,,0.00,weatherlink.com 1.10,2013-06-29 01:05:00,
2013-06-28 20:20:00,80.5,60.0,29.67,NNW,327,0.0,5.0,49,0.00,,,0.00,weatherlink.com 1.10,2013-06-29 01:20:00,
2013-06-28 20:35:00,79.6,59.0,29.67,NW,323,0.0,0.0,50,0.00,,,0.00,weatherlink.com 1.10,2013-06-29 01:35:00,
2013-06-28 20:50:00,78.7,58.0,29.67,NW,310,0.0,3.0,50,0.00,,,0.00,weatherlink.com 1.10,2013-06-29 01:50:00,
2013-06-28 21:05:00,77.8,58.0,29.67,NW,310,0.0,1.0,50,0.00,,,0.00,weatherlink.com 1.10,2013-06-29 02:05:00,
2013-06-28 21:20:00,77.0,58.0,29.67,NW,312,0.0,2.0,53,0.00,,,0.00,weatherlink.com 1.10,2013-06-29 02:20:00,
2013-06-28 21:36:00,76.0,59.0,29.67,NW,312,0.0,0.0,55,0.00,,,0.00,weatherlink.com 1.10,2013-06-29 02:36:00,
2013-06-28 21:51:00,75.0,59.0,29.67,NW,312,0.0,0.0,57,0.00,,,0.00,weatherlink.com 1.10,2013-06-29 02:51:00,
2013-06-28 22:06:00,74.3,58.0,29.67,NW,312,0.0,0.0,57,0.00,,,0.00,weatherlink.com 1.10,2013-06-29 03:06:00,
2013-06-28 22:21:00,73.7,57.0,29.68,NW,312,0.0,0.0,57,0.00,,,0.00,weatherlink.com 1.10,2013-06-29 03:21:00,
2013-06-28 22:36:00,73.4,57.0,29.68,NW,313,0.0,1.0,56,0.00,,,0.00,weatherlink.com 1.10,2013-06-29 03:36:00,
2013-06-28 22:51:00,73.1,57.0,29.68,NW,313,0.0,0.0,57,0.00,,,0.00,weatherlink.com 1.10,2013-06-29 03:51:00,
2013-06-28 23:06:00,72.7,56.0,29.68,NW,313,0.0,0.0,57,0.00,,,0.00,weatherlink.com 1.10,2013-06-29 04:06:00,
2013-06-28 23:21:00,72.2,56.0,29.68,NW,313,0.0,0.0,58,0.00,,,0.00,weatherlink.com 1.10,2013-06-29 04:21:00,
2013-06-28 23:36:00,71.7,56.0,29.68,NW,313,0.0,0.0,59,0.00,,,0.00,weatherlink.com 1.10,2013-06-29 04:36:00,
2013-06-28 23:51:00,71.5,56.0,29.68,NW,313,0.0,0.0,59,0.00,,,0.00,weatherlink.com 1.10,2013-06-29 04:51:00,